Herlong, California
Current Conditions -  °F | °C
As of 5:35 PM on Friday 19 Dec 2014 (Local Time) from KRTS Reporting Station
Overcast Overcast  
Wind Chill: 37°   Ceiling: 9000
Heat Index: 37°   Visibility: 10mi
Dew Point: 32°   Wind: 3mph
Humidity: 81%   Direction: 290°WNW
Pressure: 30.11"   Gusts: NA
Location:  40.13°N, 120.15°W
Report Text: KRTS 200135Z AUTO 29003KT 10SM FEW075 BKN090 OVC120 03/00 A3011 RMK AO2
Loading
Personal Weather Stations






























Interactive Weather Map New forecast layout! Learn more

10-Day Weather Forecast

Advertisements
Track Severe Weather on mobile